Terminal Aerodrome Forecast
Issued by NWS

Home | Current Version | Previous Version | Text Only | Print | Product List | Glossary Off
Versions: 1 2 3 4 5 6 7 8 9 10 11 12 13 14 15

000
FTUS43 KGRB 272337
TAFCWA
TAF
KCWA 272337Z 2800/2824 30009KT P6SM VCSH BKN015 OVC035
      TEMPO 2800/2802 5SM -SHRA BR BKN008
     FM280200 31006KT P6SM VCSH SCT008 OVC015
     FM281000 35007KT P6SM SCT008 OVC015
     FM281600 02011G17KT P6SM BKN025
     FM282200 02008KT P6SM BKN035=

USA.gov is the U.S. government's official web portal to all federal, state and local government web resources and services.